Time;durP1;ratioP1;P1;durP2;ratioP2;P2;SDS_P1;SDS_P2;PMS_P1;PMS_P2;Temp;Humidity;BMP_temperature;BMP_pressure;BME280_temperature;BME280_humidity;BME280_pressure;Samples;Min_cycle;Max_cycle;Signal;HPM_P1;HPM_P2
2024/02/21 00:00:55;;;;;;;18.20;7.80;;;;;;;4.63;88.78;99508.70;226952;1273;24301;-73
2024/02/21 00:05:57;;;;;;;17.90;8.50;;;;;;;4.63;89.05;99506.08;226907;1273;23506;-74
2024/02/21 00:11:01;;;;;;;15.30;7.10;;;;;;;4.61;88.96;99503.04;226908;1275;22579;-73
2024/02/21 00:16:05;;;;;;;20.70;8.30;;;;;;;4.59;88.80;99499.19;226852;1273;22540;-74
2024/02/21 00:21:07;;;;;;;20.50;7.80;;;;;;;4.58;89.10;99501.10;226820;1267;25303;-73
2024/02/21 00:26:09;;;;;;;19.10;7.50;;;;;;;4.57;88.99;99497.54;226762;1254;22544;-73
2024/02/21 00:31:11;;;;;;;15.30;8.00;;;;;;;4.56;89.41;99490.80;226828;1273;22544;-74
2024/02/21 00:36:13;;;;;;;17.30;7.30;;;;;;;4.52;88.94;99491.29;226882;1274;22563;-74
2024/02/21 00:41:15;;;;;;;18.30;6.40;;;;;;;4.52;89.13;99488.31;226860;1273;22544;-73
2024/02/21 00:46:16;;;;;;;13.90;5.60;;;;;;;4.54;89.20;99478.39;226890;1274;22580;-74
2024/02/21 00:51:19;;;;;;;16.30;6.80;;;;;;;4.57;89.23;99481.82;226967;1274;22544;-74
2024/02/21 00:56:20;;;;;;;17.90;7.50;;;;;;;4.57;89.22;99475.34;226840;1269;24409;-73
2024/02/21 01:01:25;;;;;;;21.10;7.50;;;;;;;4.57;89.39;99471.84;226925;1274;25454;-73
2024/02/21 01:06:27;;;;;;;18.30;7.70;;;;;;;4.58;89.22;99472.13;226903;1267;22556;-74
2024/02/21 01:11:29;;;;;;;14.00;7.50;;;;;;;4.59;89.38;99469.06;226909;1267;22543;-74
2024/02/21 01:16:31;;;;;;;16.10;7.00;;;;;;;4.61;89.43;99468.00;226900;1273;25338;-75
2024/02/21 01:21:33;;;;;;;14.70;6.90;;;;;;;4.59;89.18;99462.20;226849;1267;22554;-74
2024/02/21 01:26:35;;;;;;;18.70;7.70;;;;;;;4.61;89.51;99464.84;226906;1264;22556;-74
2024/02/21 01:31:37;;;;;;;20.30;8.40;;;;;;;4.63;89.17;99460.16;226767;1269;22564;-74
2024/02/21 01:36:39;;;;;;;18.50;8.00;;;;;;;4.63;89.50;99449.34;226864;1274;22551;-74
2024/02/21 01:41:41;;;;;;;21.80;9.60;;;;;;;4.63;89.59;99440.83;226852;1272;22564;-74
2024/02/21 01:46:43;;;;;;;19.80;8.60;;;;;;;4.65;89.58;99432.48;226730;1273;22559;-74
2024/02/21 01:51:46;;;;;;;16.10;7.70;;;;;;;4.67;89.80;99431.23;226896;1273;23041;-74
2024/02/21 01:56:49;;;;;;;20.20;8.10;;;;;;;4.65;89.49;99426.14;226640;1275;23185;-74
2024/02/21 02:01:52;;;;;;;18.80;7.40;;;;;;;4.61;89.38;99424.73;226904;1272;22556;-74
2024/02/21 02:06:55;;;;;;;17.10;7.00;;;;;;;4.58;89.32;99427.31;226823;1273;22554;-73
2024/02/21 02:11:58;;;;;;;16.00;7.50;;;;;;;4.54;89.47;99422.91;226758;1273;271168;-74
2024/02/21 02:17:01;;;;;;;16.80;7.70;;;;;;;4.51;89.56;99417.98;226848;1270;22543;-73
2024/02/21 02:22:12;;;;;;;15.00;7.20;;;;;;;4.46;89.51;99412.14;226970;1272;22531;-74
2024/02/21 02:27:14;;;;;;;18.40;7.60;;;;;;;4.39;89.66;99406.62;226864;1257;22540;-74
2024/02/21 02:32:16;;;;;;;16.40;7.20;;;;;;;4.35;89.78;99404.50;226891;1270;22560;-73
2024/02/21 02:37:18;;;;;;;15.40;7.10;;;;;;;4.29;89.54;99401.64;226917;1267;22552;-74
2024/02/21 02:42:20;;;;;;;13.90;6.70;;;;;;;4.24;89.60;99396.77;226975;1267;22561;-73
2024/02/21 02:47:22;;;;;;;16.00;7.00;;;;;;;4.21;89.80;99387.98;226894;1273;22559;-73
2024/02/21 02:52:24;;;;;;;15.20;7.90;;;;;;;4.18;89.65;99377.24;226919;1267;22585;-72
2024/02/21 02:57:26;;;;;;;18.00;8.20;;;;;;;4.16;89.83;99377.05;226662;1274;22559;-73
2024/02/21 03:02:28;;;;;;;17.30;8.10;;;;;;;4.15;89.88;99379.30;226707;1274;22540;-73
2024/02/21 03:07:30;;;;;;;20.50;9.90;;;;;;;4.14;89.76;99375.16;226453;1254;22553;-74
2024/02/21 03:12:32;;;;;;;19.10;9.40;;;;;;;4.14;90.30;99372.74;226762;1273;22569;-72
2024/02/21 03:17:34;;;;;;;19.70;9.80;;;;;;;4.14;90.16;99374.13;226925;1275;22553;-73
2024/02/21 03:22:37;;;;;;;19.60;10.20;;;;;;;4.13;90.19;99367.61;226790;1271;22572;-73
2024/02/21 03:27:39;;;;;;;21.60;12.40;;;;;;;4.11;90.22;99368.45;226779;1273;22573;-73
2024/02/21 03:32:41;;;;;;;20.60;12.70;;;;;;;4.12;90.22;99368.77;226929;1275;22543;-73
2024/02/21 03:37:45;;;;;;;23.60;13.80;;;;;;;4.11;90.18;99366.73;226858;1271;22551;-74
2024/02/21 03:42:47;;;;;;;25.60;15.00;;;;;;;4.12;90.20;99369.45;226951;1274;22552;-75
2024/02/21 03:47:49;;;;;;;22.70;12.90;;;;;;;4.13;90.35;99373.29;226829;1268;25460;-74
2024/02/21 03:52:51;;;;;;;22.90;11.80;;;;;;;4.16;90.38;99370.25;226866;1270;22642;-74
2024/02/21 03:57:53;;;;;;;21.50;10.80;;;;;;;4.17;90.53;99362.30;226987;1270;22568;-73
2024/02/21 04:02:55;;;;;;;26.40;11.10;;;;;;;4.18;90.38;99361.17;226971;1270;24315;-74
2024/02/21 04:07:57;;;;;;;18.30;9.70;;;;;;;4.19;90.37;99364.56;226996;1271;22914;-74
2024/02/21 04:12:59;;;;;;;16.90;8.30;;;;;;;4.20;90.53;99364.70;226860;1271;23461;-73
2024/02/21 04:18:02;;;;;;;20.10;9.40;;;;;;;4.21;90.34;99366.03;226860;1268;22552;-74
2024/02/21 04:23:05;;;;;;;17.00;9.40;;;;;;;4.21;90.24;99359.92;226751;1272;22556;-74
2024/02/21 04:28:07;;;;;;;15.40;10.40;;;;;;;4.20;90.29;99355.42;226823;1271;22534;-74
2024/02/21 04:33:08;;;;;;;22.10;11.80;;;;;;;4.19;90.32;99347.88;226901;1268;23076;-73
2024/02/21 04:38:11;;;;;;;19.30;11.40;;;;;;;4.17;90.39;99343.48;226914;1274;22557;-73
2024/02/21 04:43:12;;;;;;;19.50;11.30;;;;;;;4.18;90.50;99338.14;226971;1271;22575;-73
2024/02/21 04:48:14;;;;;;;20.80;13.00;;;;;;;4.18;90.56;99329.95;226741;1269;22552;-73
2024/02/21 04:53:17;;;;;;;19.60;12.40;;;;;;;4.16;90.41;99325.08;226901;1268;23321;-73
2024/02/21 04:58:18;;;;;;;19.90;11.80;;;;;;;4.13;90.51;99322.64;226914;1270;22655;-73
2024/02/21 05:03:21;;;;;;;22.10;11.90;;;;;;;4.11;90.46;99321.73;226917;1267;24306;-73
2024/02/21 05:08:23;;;;;;;19.90;12.80;;;;;;;4.10;90.70;99311.56;226985;1267;22549;-74
2024/02/21 05:13:26;;;;;;;20.70;13.80;;;;;;;4.09;90.44;99309.88;226874;1267;22565;-74
2024/02/21 05:18:28;;;;;;;22.40;14.40;;;;;;;4.08;90.54;99308.91;226811;1273;22543;-73
2024/02/21 05:23:30;;;;;;;18.90;13.00;;;;;;;4.09;90.54;99310.91;226774;1273;24791;-73
2024/02/21 05:28:32;;;;;;;26.20;17.30;;;;;;;4.11;90.71;99309.73;226981;1271;22594;-73
2024/02/21 05:33:34;;;;;;;30.20;18.60;;;;;;;4.10;90.63;99306.28;226762;1274;22543;-73
2024/02/21 05:38:37;;;;;;;29.30;19.70;;;;;;;4.09;90.72;99312.47;226915;1270;24276;-73
2024/02/21 05:43:40;;;;;;;30.70;19.50;;;;;;;4.11;90.64;99315.66;226988;1270;22557;-73
2024/02/21 05:48:42;;;;;;;29.10;20.80;;;;;;;4.13;90.84;99308.71;226929;1270;23300;-74
2024/02/21 05:53:44;;;;;;;30.10;19.00;;;;;;;4.14;90.72;99306.33;226904;1272;22543;-73
2024/02/21 05:58:46;;;;;;;26.30;17.30;;;;;;;4.13;90.51;99304.98;226884;1253;22543;-74
2024/02/21 06:03:48;;;;;;;28.20;20.10;;;;;;;4.16;90.81;99302.29;226841;1272;22556;-74
2024/02/21 06:08:50;;;;;;;30.20;19.90;;;;;;;4.17;90.80;99300.96;226851;1272;25196;-74
2024/02/21 06:13:52;;;;;;;33.20;22.90;;;;;;;4.20;91.07;99301.26;227011;1269;22555;-73
2024/02/21 06:18:54;;;;;;;32.60;22.90;;;;;;;4.24;90.93;99299.29;226889;1270;22576;-73
2024/02/21 06:23:56;;;;;;;36.50;24.00;;;;;;;4.29;91.15;99303.47;226906;1272;22557;-73
2024/02/21 06:28:59;;;;;;;36.20;22.30;;;;;;;4.32;90.83;99302.80;226883;1272;22546;-73
2024/02/21 06:34:02;;;;;;;30.90;21.00;;;;;;;4.34;90.94;99303.31;226997;1271;24428;-73
2024/02/21 06:39:07;;;;;;;33.90;21.40;;;;;;;4.39;90.83;99303.41;226992;1272;22548;-75
2024/02/21 06:44:09;;;;;;;30.80;20.20;;;;;;;4.44;91.02;99301.05;226960;1270;22567;-73
2024/02/21 06:49:15;;;;;;;28.90;18.70;;;;;;;4.50;90.87;99297.72;226720;1272;24240;-73
2024/02/21 06:54:18;;;;;;;29.80;20.10;;;;;;;4.57;90.97;99296.68;226541;1255;22539;-73
2024/02/21 06:59:20;;;;;;;30.60;19.40;;;;;;;4.64;90.96;99295.08;226469;1262;25386;-73
2024/02/21 07:04:22;;;;;;;28.20;18.40;;;;;;;4.71;90.91;99299.16;226452;1264;24286;-73
2024/02/21 07:09:24;;;;;;;29.90;17.40;;;;;;;4.82;91.04;99301.77;226560;1258;24510;-73
2024/02/21 07:14:29;;;;;;;28.90;18.10;;;;;;;4.92;91.09;99295.85;226243;1259;23762;-73
2024/02/21 07:19:31;;;;;;;31.40;19.80;;;;;;;5.01;90.61;99286.14;226068;1261;22604;-73
2024/02/21 07:24:33;;;;;;;34.50;26.00;;;;;;;5.01;90.41;99287.66;226034;1267;22559;-73
2024/02/21 07:29:35;;;;;;;35.70;24.30;;;;;;;5.06;90.21;99280.75;226110;1259;22580;-74
2024/02/21 07:34:37;;;;;;;35.40;20.80;;;;;;;5.14;90.27;99271.45;225927;1253;22994;-74
2024/02/21 07:39:39;;;;;;;30.40;18.80;;;;;;;5.23;90.21;99268.83;226154;1252;22927;-76
2024/02/21 07:44:41;;;;;;;34.40;18.30;;;;;;;5.32;89.96;99274.84;225951;1268;22557;-75
2024/02/21 07:49:44;;;;;;;27.30;15.50;;;;;;;5.44;90.28;99272.27;226112;1261;22572;-75
2024/02/21 07:54:46;;;;;;;23.30;14.90;;;;;;;5.61;90.10;99266.49;226721;1252;22567;-75
2024/02/21 07:59:48;;;;;;;25.40;15.50;;;;;;;5.73;89.95;99260.63;226647;1267;24250;-76
2024/02/21 08:04:50;;;;;;;24.00;14.40;;;;;;;5.85;89.77;99265.61;226563;1268;22565;-76
2024/02/21 08:09:52;;;;;;;23.70;13.50;;;;;;;6.00;89.60;99265.74;226492;1255;22548;-76
2024/02/21 08:14:54;;;;;;;25.10;13.40;;;;;;;6.16;89.59;99261.27;226454;1271;24368;-75
2024/02/21 08:19:56;;;;;;;25.80;13.70;;;;;;;6.24;89.35;99255.02;226506;1268;22557;-75
2024/02/21 08:24:59;;;;;;;24.60;14.50;;;;;;;6.29;88.96;99240.05;226494;1267;22547;-75
2024/02/21 08:30:01;;;;;;;24.10;14.10;;;;;;;6.29;88.65;99232.55;226519;1257;22643;-76
2024/02/21 08:35:05;;;;;;;24.40;13.80;;;;;;;6.43;88.97;99230.10;226614;1261;22542;-76
2024/02/21 08:40:08;;;;;;;22.00;12.80;;;;;;;6.62;88.74;99227.70;226518;1257;22533;-76
2024/02/21 08:45:11;;;;;;;24.50;12.80;;;;;;;6.81;89.10;99207.18;226487;1267;22553;-78
2024/02/21 08:50:13;;;;;;;24.10;12.80;;;;;;;7.03;88.19;99205.36;226573;1261;22543;-77
2024/02/21 08:55:28;;;;;;;23.10;11.60;;;;;;;7.16;87.88;99207.86;226605;1268;22657;-76
2024/02/21 09:00:30;;;;;;;21.90;11.50;;;;;;;7.28;87.46;99198.79;226229;1268;22560;-76
2024/02/21 09:05:34;;;;;;;21.60;12.00;;;;;;;7.53;87.61;99194.96;226429;1268;22591;-76
2024/02/21 09:10:37;;;;;;;21.10;10.80;;;;;;;7.89;87.66;99202.79;226432;1255;22557;-77
2024/02/21 09:15:39;;;;;;;17.30;9.60;;;;;;;8.13;86.70;99200.86;226153;1269;22559;-77
2024/02/21 09:20:41;;;;;;;17.20;9.10;;;;;;;8.25;85.34;99202.46;226148;1255;22627;-77
2024/02/21 09:25:43;;;;;;;16.20;8.70;;;;;;;8.28;84.85;99203.89;226416;1268;23165;-77
2024/02/21 09:30:45;;;;;;;20.40;9.10;;;;;;;8.29;84.44;99208.86;226264;1255;22581;-77
2024/02/21 09:35:48;;;;;;;14.90;7.10;;;;;;;8.31;84.64;99212.48;226189;1268;22561;-76
2024/02/21 09:41:08;;;;;;;13.60;7.10;;;;;;;8.29;83.65;99212.41;226241;1262;22548;-77
2024/02/21 09:46:16;;;;;;;14.70;7.00;;;;;;;8.28;83.63;99205.50;226268;1253;22970;-77
2024/02/21 09:51:21;;;;;;;15.20;7.50;;;;;;;8.31;83.60;99207.06;226425;1267;22554;-77
2024/02/21 09:56:23;;;;;;;11.30;6.10;;;;;;;8.65;83.97;99205.17;226625;1267;24236;-77
2024/02/21 10:01:25;;;;;;;10.90;6.00;;;;;;;8.99;83.34;99192.86;226507;1252;24304;-77
2024/02/21 10:06:37;;;;;;;14.20;7.60;;;;;;;9.23;83.04;99191.48;226279;1259;22551;-75
2024/02/21 10:11:39;;;;;;;13.60;6.60;;;;;;;9.33;82.45;99198.05;226684;1258;23062;-78
2024/02/21 10:16:42;;;;;;;11.20;5.80;;;;;;;9.44;81.98;99200.48;226610;1268;22550;-76
2024/02/21 10:21:44;;;;;;;10.80;5.70;;;;;;;9.49;81.14;99189.59;226426;1269;22550;-76
2024/02/21 10:26:47;;;;;;;13.20;5.70;;;;;;;9.60;81.37;99195.23;226505;1265;25278;-76
2024/02/21 10:31:49;;;;;;;11.50;5.60;;;;;;;9.75;80.80;99196.04;226553;1268;26963;-77
2024/02/21 10:37:00;;;;;;;10.10;5.00;;;;;;;9.83;80.17;99188.16;226629;1268;22571;-76
2024/02/21 10:42:03;;;;;;;9.40;4.80;;;;;;;9.83;79.54;99179.55;226455;1272;22539;-74
2024/02/21 10:47:10;;;;;;;11.80;5.00;;;;;;;9.83;79.21;99179.72;226477;1268;25502;-75
2024/02/21 10:52:43;;;;;;;11.70;4.60;;;;;;;9.80;78.66;99175.11;226386;1271;22598;-75
2024/02/21 10:57:46;;;;;;;8.80;4.60;;;;;;;9.77;78.79;99176.70;226488;1273;25372;-76
2024/02/21 11:02:48;;;;;;;8.60;4.40;;;;;;;9.73;78.08;99168.80;226393;1252;22540;-76
2024/02/21 11:07:51;;;;;;;8.60;3.70;;;;;;;9.69;78.00;99159.34;226732;1267;23366;-75
2024/02/21 11:13:13;;;;;;;17.20;7.20;;;;;;;9.72;78.48;99148.48;225896;1267;22614;-76
2024/02/21 11:18:23;;;;;;;12.70;5.20;;;;;;;9.76;78.04;99141.11;226066;1267;22781;-75
2024/02/21 11:23:26;;;;;;;11.80;4.80;;;;;;;9.70;77.73;99133.23;225951;1255;22547;-74
2024/02/21 11:28:28;;;;;;;13.70;6.20;;;;;;;9.57;77.65;99131.06;226053;1267;24202;-75
2024/02/21 11:33:33;;;;;;;10.80;5.30;;;;;;;9.41;77.62;99125.39;226052;1255;22959;-74
2024/02/21 11:38:37;;;;;;;11.50;4.90;;;;;;;9.30;77.90;99120.30;226130;1264;23020;-75
2024/02/21 11:43:40;;;;;;;11.40;4.90;;;;;;;9.22;77.78;99114.80;226310;1268;22563;-74
2024/02/21 11:48:44;;;;;;;9.50;5.30;;;;;;;9.06;78.33;99110.67;226458;1262;22931;-74
2024/02/21 11:53:47;;;;;;;11.20;5.40;;;;;;;8.88;79.03;99102.70;226453;1255;25505;-75
2024/02/21 11:59:02;;;;;;;10.90;5.10;;;;;;;8.78;79.07;99103.84;226483;1264;22569;-74
2024/02/21 12:04:04;;;;;;;11.40;5.30;;;;;;;8.68;79.55;99101.95;226531;1264;22547;-74
2024/02/21 12:09:09;;;;;;;12.60;6.10;;;;;;;8.61;80.36;99101.70;226473;1267;22546;-77
2024/02/21 12:14:11;;;;;;;9.80;5.50;;;;;;;8.50;80.30;99099.36;226469;1255;22551;-73
2024/02/21 12:19:13;;;;;;;12.00;6.10;;;;;;;8.35;80.73;99095.73;226372;1255;22571;-74
2024/02/21 12:24:21;;;;;;;15.90;6.80;;;;;;;8.23;81.35;99089.11;226437;1268;22548;-74
2024/02/21 12:29:28;;;;;;;11.60;5.90;;;;;;;8.22;81.60;99077.27;226336;1253;22641;-74
2024/02/21 12:34:32;;;;;;;10.70;5.80;;;;;;;8.31;81.68;99074.45;226299;1265;24203;-74
2024/02/21 12:39:53;;;;;;;11.90;5.80;;;;;;;8.43;81.79;99072.88;226563;1271;22557;-73
2024/02/21 12:44:55;;;;;;;14.20;6.90;;;;;;;8.49;81.40;99065.58;226358;1265;24222;-74
2024/02/21 12:49:57;;;;;;;12.20;6.50;;;;;;;8.57;81.64;99062.97;226320;1261;22556;-75
2024/02/21 12:54:59;;;;;;;17.00;7.20;;;;;;;8.60;81.45;99058.77;226390;1258;22578;-73
2024/02/21 13:00:03;;;;;;;15.70;6.30;;;;;;;8.60;81.62;99046.67;226283;1268;22684;-73
2024/02/21 13:05:06;;;;;;;14.70;7.20;;;;;;;8.61;81.54;99039.19;226264;1273;24263;-73
2024/02/21 13:10:09;;;;;;;11.80;6.40;;;;;;;8.66;81.75;99032.94;226178;1255;22561;-74
2024/02/21 13:15:12;;;;;;;11.60;6.60;;;;;;;8.70;81.90;99027.52;226368;1255;22533;-73
2024/02/21 13:20:14;;;;;;;16.60;7.10;;;;;;;8.73;81.51;99019.20;226436;1269;22547;-74
2024/02/21 13:25:19;;;;;;;13.90;7.60;;;;;;;8.75;81.46;99014.18;226192;1257;22686;-75
2024/02/21 13:30:22;;;;;;;14.50;7.20;;;;;;;8.78;81.33;99014.06;226096;1274;22558;-75
2024/02/21 13:35:24;;;;;;;16.70;6.80;;;;;;;8.80;81.31;99011.33;226355;1271;22564;-75
2024/02/21 13:40:26;;;;;;;13.10;6.30;;;;;;;8.81;81.13;99010.40;226413;1259;22597;-75
2024/02/21 13:45:28;;;;;;;16.00;7.30;;;;;;;8.75;80.80;99009.87;226496;1271;22550;-74
2024/02/21 13:50:41;;;;;;;13.30;6.90;;;;;;;8.70;80.95;99003.77;226469;1255;22530;-75
2024/02/21 13:55:47;;;;;;;15.10;7.10;;;;;;;8.64;80.96;98998.29;226428;1274;22539;-75
2024/02/21 14:00:49;;;;;;;19.40;7.40;;;;;;;8.56;80.65;98994.47;226493;1254;22542;-74
2024/02/21 14:05:51;;;;;;;15.80;7.60;;;;;;;8.47;80.89;98982.98;226425;1251;22584;-74
2024/02/21 14:10:55;;;;;;;14.90;7.60;;;;;;;8.41;81.17;98969.93;226364;1271;220727;-75
2024/02/21 14:15:58;;;;;;;12.90;6.30;;;;;;;8.43;81.26;98954.05;226523;1268;22562;-79
2024/02/21 14:21:00;;;;;;;13.70;6.50;;;;;;;8.51;81.16;98946.35;226286;1268;22559;-76
2024/02/21 14:26:03;;;;;;;14.10;7.50;;;;;;;8.52;81.24;98934.83;226393;1271;22546;-75
2024/02/21 14:31:08;;;;;;;11.80;6.50;;;;;;;8.46;81.36;98921.23;226443;1264;25240;-75
2024/02/21 14:36:11;;;;;;;13.70;6.80;;;;;;;8.37;80.92;98914.75;226295;1267;22560;-74
2024/02/21 14:41:14;;;;;;;13.20;6.20;;;;;;;8.33;81.30;98915.71;226382;1261;22797;-73
2024/02/21 14:46:15;;;;;;;14.20;7.70;;;;;;;8.33;81.13;98908.90;226352;1256;22558;-73
2024/02/21 14:51:17;;;;;;;11.90;5.70;;;;;;;8.36;81.11;98910.48;226459;1269;24413;-72
2024/02/21 14:56:19;;;;;;;11.30;6.00;;;;;;;8.38;80.70;98915.14;226396;1269;22705;-74
2024/02/21 15:01:21;;;;;;;15.90;6.80;;;;;;;8.39;80.55;98913.14;226285;1258;22562;-73
2024/02/21 15:06:23;;;;;;;15.70;7.50;;;;;;;8.36;80.40;98915.77;226270;1274;22547;-74
2024/02/21 15:11:27;;;;;;;10.90;6.30;;;;;;;8.29;80.50;98913.91;226255;1273;25291;-73
2024/02/21 15:16:30;;;;;;;13.00;6.30;;;;;;;8.22;80.84;98910.06;226433;1271;22759;-73
2024/02/21 15:21:34;;;;;;;13.30;7.30;;;;;;;8.18;80.85;98905.40;226535;1272;22530;-73
2024/02/21 15:26:40;;;;;;;16.00;7.20;;;;;;;8.13;81.15;98895.08;226700;1273;22530;-73
2024/02/21 15:31:46;;;;;;;15.50;6.10;;;;;;;8.04;81.01;98888.18;226678;1274;22561;-73
2024/02/21 15:36:49;;;;;;;15.60;7.10;;;;;;;7.90;81.04;98879.64;226642;1274;22643;-74
2024/02/21 15:41:50;;;;;;;15.00;7.00;;;;;;;7.73;81.13;98871.86;226758;1274;24278;-72
2024/02/21 15:46:52;;;;;;;14.60;8.00;;;;;;;7.58;81.22;98877.20;226733;1274;22771;-72
2024/02/21 15:51:55;;;;;;;16.10;7.40;;;;;;;7.49;81.41;98873.57;226663;1273;22563;-74
2024/02/21 15:56:59;;;;;;;13.60;7.00;;;;;;;7.45;81.95;98871.06;226706;1271;25248;-74
2024/02/21 16:02:02;;;;;;;16.30;6.90;;;;;;;7.43;81.96;98864.06;226777;1271;22560;-74
2024/02/21 16:07:04;;;;;;;12.50;7.20;;;;;;;7.41;82.12;98866.35;226791;1271;22543;-73
2024/02/21 16:12:08;;;;;;;13.60;6.80;;;;;;;7.39;81.94;98866.63;226736;1271;22574;-74
2024/02/21 16:17:11;;;;;;;15.40;6.80;;;;;;;7.35;81.68;98862.67;226659;1271;22555;-73
2024/02/21 16:22:13;;;;;;;12.70;6.60;;;;;;;7.28;81.97;98848.71;226732;1271;25417;-73
2024/02/21 16:27:15;;;;;;;13.00;6.80;;;;;;;7.16;81.74;98846.65;226708;1272;22538;-73
2024/02/21 16:32:17;;;;;;;13.10;6.50;;;;;;;7.02;81.50;98844.02;226686;1271;22533;-73
2024/02/21 16:37:21;;;;;;;12.20;5.60;;;;;;;6.89;82.01;98853.80;226676;1274;24354;-73
2024/02/21 16:42:23;;;;;;;12.60;6.10;;;;;;;6.79;82.14;98853.70;226753;1274;22573;-73
2024/02/21 16:47:25;;;;;;;11.90;6.60;;;;;;;6.73;82.35;98856.70;226712;1274;22598;-74
2024/02/21 16:52:27;;;;;;;12.30;6.10;;;;;;;6.72;82.05;98838.90;226736;1274;22543;-74
2024/02/21 16:57:29;;;;;;;10.80;6.40;;;;;;;6.72;82.61;98833.19;226737;1272;24353;-73
2024/02/21 17:02:31;;;;;;;15.80;5.90;;;;;;;6.69;82.20;98830.02;226735;1271;22538;-74
2024/02/21 17:07:42;;;;;;;14.00;6.90;;;;;;;6.63;81.83;98831.58;226639;1275;22567;-73
2024/02/21 17:12:44;;;;;;;10.30;5.60;;;;;;;6.55;82.09;98836.58;226775;1272;22531;-73
2024/02/21 17:17:46;;;;;;;15.00;6.90;;;;;;;6.47;82.26;98841.85;226758;1274;22574;-73
2024/02/21 17:22:48;;;;;;;12.40;6.60;;;;;;;6.39;82.69;98848.24;226678;1275;25284;-73
2024/02/21 17:27:50;;;;;;;16.30;7.20;;;;;;;6.31;82.43;98838.71;226821;1274;22557;-74
2024/02/21 17:32:52;;;;;;;16.40;7.40;;;;;;;6.24;82.54;98841.55;226806;1275;22601;-73
2024/02/21 17:37:54;;;;;;;16.60;7.90;;;;;;;6.17;82.65;98838.86;226822;1272;22578;-74
2024/02/21 17:42:57;;;;;;;16.40;7.80;;;;;;;6.08;82.52;98836.44;226768;1275;22560;-73
2024/02/21 17:47:59;;;;;;;13.20;8.00;;;;;;;6.01;83.24;98836.73;226809;1275;24241;-73
2024/02/21 17:53:02;;;;;;;12.00;7.40;;;;;;;5.96;82.97;98836.05;226767;1274;22591;-73
2024/02/21 17:58:06;;;;;;;17.90;9.10;;;;;;;5.90;82.92;98831.98;226701;1272;22545;-73
2024/02/21 18:03:08;;;;;;;15.70;7.90;;;;;;;5.86;82.91;98819.63;226723;1271;22596;-74
2024/02/21 18:08:12;;;;;;;19.00;9.30;;;;;;;5.81;83.16;98814.67;226730;1275;22572;-74
2024/02/21 18:13:13;;;;;;;18.90;9.20;;;;;;;5.77;82.99;98805.36;226801;1272;25349;-73
2024/02/21 18:18:16;;;;;;;16.70;8.90;;;;;;;5.73;83.24;98802.68;226749;1275;23022;-74
2024/02/21 18:23:18;;;;;;;15.90;8.10;;;;;;;5.67;83.68;98793.61;226708;1275;22553;-74
2024/02/21 18:28:20;;;;;;;17.20;8.80;;;;;;;5.63;84.00;98785.99;226834;1271;22539;-73
2024/02/21 18:33:23;;;;;;;15.20;9.00;;;;;;;5.59;83.79;98777.34;226686;1275;23373;-72
2024/02/21 18:38:25;;;;;;;17.20;9.60;;;;;;;5.57;83.88;98772.05;226741;1271;22650;-73
2024/02/21 18:43:27;;;;;;;16.50;9.40;;;;;;;5.54;83.63;98762.06;226803;1275;22619;-73
2024/02/21 18:48:29;;;;;;;17.00;9.20;;;;;;;5.50;83.97;98746.91;226785;1275;22542;-73
2024/02/21 18:53:31;;;;;;;18.30;9.70;;;;;;;5.47;84.29;98745.67;226808;1275;22556;-73
2024/02/21 18:58:35;;;;;;;21.10;10.60;;;;;;;5.46;84.39;98741.50;226742;1273;22560;-74
2024/02/21 19:03:37;;;;;;;21.40;11.20;;;;;;;5.42;84.28;98736.98;226786;1275;22580;-74
2024/02/21 19:08:40;;;;;;;22.60;11.70;;;;;;;5.36;84.26;98733.38;226750;1274;22594;-73
2024/02/21 19:13:44;;;;;;;17.50;10.70;;;;;;;5.30;84.57;98733.92;226830;1271;22643;-74
2024/02/21 19:18:47;;;;;;;20.40;10.90;;;;;;;5.28;84.59;98730.34;226828;1274;22575;-73
2024/02/21 19:23:49;;;;;;;21.20;10.30;;;;;;;5.26;84.62;98721.26;226774;1272;22689;-73
2024/02/21 19:28:51;;;;;;;21.20;10.00;;;;;;;5.23;84.90;98718.61;226850;1273;22956;-74
2024/02/21 19:33:56;;;;;;;18.30;9.20;;;;;;;5.18;84.50;98718.45;226861;1273;22561;-73
2024/02/21 19:38:58;;;;;;;17.30;9.80;;;;;;;5.14;84.76;98713.92;226846;1271;24297;-73
2024/02/21 19:44:00;;;;;;;17.10;9.20;;;;;;;5.12;85.04;98709.66;226735;1274;22555;-73
2024/02/21 19:49:02;;;;;;;18.70;9.60;;;;;;;5.10;84.91;98709.12;226881;1273;25353;-73
2024/02/21 19:54:05;;;;;;;20.30;10.00;;;;;;;5.09;85.08;98705.27;226853;1267;22550;-73
2024/02/21 19:59:24;;;;;;;19.30;10.30;;;;;;;5.05;84.89;98702.83;226850;1272;22550;-73
2024/02/21 20:04:27;;;;;;;18.50;10.80;;;;;;;5.02;84.71;98696.68;226863;1270;22559;-73
2024/02/21 20:09:31;;;;;;;17.80;10.10;;;;;;;5.00;84.94;98689.36;226872;1272;22590;-73
2024/02/21 20:14:33;;;;;;;19.50;10.40;;;;;;;5.00;84.93;98683.61;226826;1273;22960;-73
2024/02/21 20:19:37;;;;;;;18.90;10.60;;;;;;;4.99;84.99;98680.23;226825;1272;22546;-72
2024/02/21 20:24:39;;;;;;;18.90;10.30;;;;;;;4.95;84.92;98679.58;226926;1273;22546;-73
2024/02/21 20:29:42;;;;;;;18.70;9.80;;;;;;;4.91;85.15;98668.27;226877;1274;22651;-73
2024/02/21 20:34:47;;;;;;;16.80;10.20;;;;;;;4.88;85.05;98663.35;226838;1273;22545;-72
2024/02/21 20:39:49;;;;;;;21.00;11.40;;;;;;;4.86;85.26;98661.66;226834;1273;22564;-73
2024/02/21 20:44:53;;;;;;;21.00;10.80;;;;;;;4.83;85.35;98657.23;226770;1274;22602;-73
2024/02/21 20:49:57;;;;;;;20.70;11.20;;;;;;;4.80;84.85;98659.36;226614;1273;22558;-73
2024/02/21 20:54:59;;;;;;;19.10;11.10;;;;;;;4.75;85.07;98655.20;226796;1273;24224;-74
2024/02/21 21:00:02;;;;;;;19.40;12.30;;;;;;;4.72;85.27;98653.15;226875;1274;22636;-73
2024/02/21 21:05:04;;;;;;;23.00;12.90;;;;;;;4.69;85.24;98647.39;226904;1272;23188;-73
2024/02/21 21:10:07;;;;;;;21.90;12.70;;;;;;;4.61;85.21;98635.01;226776;1273;22573;-72
2024/02/21 21:15:09;;;;;;;20.90;11.20;;;;;;;4.55;85.22;98633.38;226909;1274;22934;-72
2024/02/21 21:20:11;;;;;;;21.50;12.30;;;;;;;4.53;85.56;98625.96;226893;1273;22562;-73
2024/02/21 21:25:14;;;;;;;18.40;11.20;;;;;;;4.51;85.43;98610.02;226830;1273;22558;-73
2024/02/21 21:30:16;;;;;;;25.80;12.20;;;;;;;4.50;85.43;98600.53;226766;1272;23123;-73
2024/02/21 21:35:19;;;;;;;25.70;12.30;;;;;;;4.49;85.64;98584.80;226904;1274;22546;-73
2024/02/21 21:40:26;;;;;;;20.50;11.50;;;;;;;4.49;85.62;98573.98;226858;1274;22932;-73
2024/02/21 21:45:28;;;;;;;23.50;13.20;;;;;;;4.50;85.61;98564.99;226858;1273;24244;-73
2024/02/21 21:50:30;;;;;;;24.50;12.80;;;;;;;4.51;85.88;98553.71;226845;1275;22574;-73
2024/02/21 21:55:32;;;;;;;23.50;12.20;;;;;;;4.52;85.53;98547.73;226896;1273;22557;-73
2024/02/21 22:00:35;;;;;;;26.90;13.00;;;;;;;4.52;85.74;98541.20;226787;1272;22546;-73
2024/02/21 22:05:37;;;;;;;20.50;11.70;;;;;;;4.53;85.49;98529.50;226919;1270;22544;-74
2024/02/21 22:10:41;;;;;;;20.60;11.80;;;;;;;4.53;85.71;98517.63;226833;1275;22627;-72
2024/02/21 22:15:43;;;;;;;18.50;10.80;;;;;;;4.53;85.56;98511.81;226764;1275;22574;-73
2024/02/21 22:20:45;;;;;;;21.20;13.50;;;;;;;4.52;85.47;98508.27;226944;1267;25341;-74
2024/02/21 22:25:47;;;;;;;20.30;12.20;;;;;;;4.51;85.56;98502.94;226861;1267;22572;-73
2024/02/21 22:30:49;;;;;;;22.80;13.10;;;;;;;4.48;85.65;98491.38;226942;1275;22625;-73
2024/02/21 22:35:52;;;;;;;22.50;13.30;;;;;;;4.45;85.33;98480.98;226927;1275;22547;-72
2024/02/21 22:40:56;;;;;;;19.30;11.60;;;;;;;4.42;85.48;98476.58;226924;1267;22547;-74
2024/02/21 22:45:58;;;;;;;17.80;10.10;;;;;;;4.38;85.29;98466.31;226755;1273;22558;-73
2024/02/21 22:51:00;;;;;;;16.70;9.40;;;;;;;4.37;85.59;98461.54;226913;1275;22578;-74
2024/02/21 22:56:03;;;;;;;19.70;10.30;;;;;;;4.36;85.62;98452.61;226741;1275;22578;-73
2024/02/21 23:01:10;;;;;;;16.80;10.30;;;;;;;4.36;85.57;98449.77;226824;1275;22951;-73
2024/02/21 23:06:12;;;;;;;16.10;9.20;;;;;;;4.38;85.64;98440.40;226782;1268;22640;-73
2024/02/21 23:11:15;;;;;;;14.20;8.40;;;;;;;4.39;85.34;98442.14;226715;1273;22582;-73
2024/02/21 23:16:17;;;;;;;17.80;8.60;;;;;;;4.41;85.31;98439.83;226760;1272;22549;-73
2024/02/21 23:21:18;;;;;;;16.30;8.40;;;;;;;4.43;85.16;98439.48;226902;1272;22558;-73